sensor_id;sensor_type;location;lat;lon;timestamp;temperature;humidity
24844;DHT22;12921;51.392;12.240;2023-01-13T18:55:17;8.30;99.90
24844;DHT22;12921;51.392;12.240;2023-01-13T18:57:43;8.00;99.90
24844;DHT22;12921;51.392;12.240;2023-01-13T19:00:12;7.90;99.90
24844;DHT22;12921;51.392;12.240;2023-01-13T19:02:38;7.90;99.90
24844;DHT22;12921;51.392;12.240;2023-01-13T19:05:05;7.90;99.90
24844;DHT22;12921;51.392;12.240;2023-01-13T19:07:31;7.90;99.90
24844;DHT22;12921;51.392;12.240;2023-01-13T19:09:59;7.70;99.90
24844;DHT22;12921;51.392;12.240;2023-01-13T19:12:26;7.70;99.90
24844;DHT22;12921;51.392;12.240;2023-01-13T19:14:55;7.70;99.90
24844;DHT22;12921;51.392;12.240;2023-01-13T19:17:23;7.70;99.90
24844;DHT22;12921;51.392;12.240;2023-01-13T19:19:51;7.70;99.90
24844;DHT22;12921;51.392;12.240;2023-01-13T19:22:20;8.00;99.90
24844;DHT22;12921;51.392;12.240;2023-01-13T19:24:50;8.00;99.90
24844;DHT22;12921;51.392;12.240;2023-01-13T19:27:18;8.00;99.90
24844;DHT22;12921;51.392;12.240;2023-01-13T19:29:45;8.00;99.90
24844;DHT22;12921;51.392;12.240;2023-01-13T19:32:11;7.90;99.90
24844;DHT22;12921;51.392;12.240;2023-01-13T19:34:37;7.90;99.90
24844;DHT22;12921;51.392;12.240;2023-01-13T19:37:03;7.90;99.90
24844;DHT22;12921;51.392;12.240;2023-01-13T19:39:31;7.90;99.90
24844;DHT22;12921;51.392;12.240;2023-01-13T19:41:57;7.80;99.90
24844;DHT22;12921;51.392;12.240;2023-01-13T19:44:41;7.80;99.90
24844;DHT22;12921;51.392;12.240;2023-01-13T19:47:25;7.80;99.90
24844;DHT22;12921;51.392;12.240;2023-01-13T19:49:51;7.80;99.90
24844;DHT22;12921;51.392;12.240;2023-01-13T19:52:17;7.70;99.90
24844;DHT22;12921;51.392;12.240;2023-01-13T19:54:46;7.70;99.90
24844;DHT22;12921;51.392;12.240;2023-01-13T19:57:12;7.70;99.90
24844;DHT22;12921;51.392;12.240;2023-01-13T19:59:39;7.80;99.90
24844;DHT22;12921;51.392;12.240;2023-01-13T20:02:13;7.80;99.90
24844;DHT22;12921;51.392;12.240;2023-01-13T20:04:40;7.80;99.90
24844;DHT22;12921;51.392;12.240;2023-01-13T20:07:12;7.80;99.90
24844;DHT22;12921;51.392;12.240;2023-01-13T20:09:39;7.90;99.90
24844;DHT22;12921;51.392;12.240;2023-01-13T20:12:08;7.80;99.90
24844;DHT22;12921;51.392;12.240;2023-01-13T20:14:38;7.80;99.90
24844;DHT22;12921;51.392;12.240;2023-01-13T20:17:03;7.90;99.90
24844;DHT22;12921;51.392;12.240;2023-01-13T20:19:30;7.90;99.90
24844;DHT22;12921;51.392;12.240;2023-01-13T20:21:56;8.00;99.90
24844;DHT22;12921;51.392;12.240;2023-01-13T20:24:21;7.90;99.90
24844;DHT22;12921;51.392;12.240;2023-01-13T20:26:48;8.00;99.90
24844;DHT22;12921;51.392;12.240;2023-01-13T20:29:14;8.10;99.90
24844;DHT22;12921;51.392;12.240;2023-01-13T20:31:40;8.00;99.90
24844;DHT22;12921;51.392;12.240;2023-01-13T20:34:05;8.10;99.90
24844;DHT22;12921;51.392;12.240;2023-01-13T20:36:33;8.20;99.90
24844;DHT22;12921;51.392;12.240;2023-01-13T20:39:03;8.20;99.90
24844;DHT22;12921;51.392;12.240;2023-01-13T20:41:29;8.20;99.90
24844;DHT22;12921;51.392;12.240;2023-01-13T20:44:14;8.20;99.90
24844;DHT22;12921;51.392;12.240;2023-01-13T20:46:41;8.20;99.90
24844;DHT22;12921;51.392;12.240;2023-01-13T20:49:09;8.20;99.90
24844;DHT22;12921;51.392;12.240;2023-01-13T20:51:36;8.10;99.90
24844;DHT22;12921;51.392;12.240;2023-01-13T20:54:02;8.10;99.90
24844;DHT22;12921;51.392;12.240;2023-01-13T20:56:28;8.10;99.90
24844;DHT22;12921;51.392;12.240;2023-01-13T20:58:54;8.10;99.90
24844;DHT22;12921;51.392;12.240;2023-01-13T21:01:19;8.10;99.90
24844;DHT22;12921;51.392;12.240;2023-01-13T21:03:45;8.00;99.90
24844;DHT22;12921;51.392;12.240;2023-01-13T21:06:10;7.80;99.90
24844;DHT22;12921;51.392;12.240;2023-01-13T21:08:36;7.70;99.90
24844;DHT22;12921;51.392;12.240;2023-01-13T21:11:03;7.70;99.90
24844;DHT22;12921;51.392;12.240;2023-01-13T21:13:30;7.70;99.90
24844;DHT22;12921;51.392;12.240;2023-01-13T21:16:15;7.60;99.90
24844;DHT22;12921;51.392;12.240;2023-01-13T21:18:40;7.40;99.90
24844;DHT22;12921;51.392;12.240;2023-01-13T21:21:25;7.40;99.90
24844;DHT22;12921;51.392;12.240;2023-01-13T21:23:50;7.30;99.90
24844;DHT22;12921;51.392;12.240;2023-01-13T21:26:19;7.30;99.90
24844;DHT22;12921;51.392;12.240;2023-01-13T21:28:47;7.20;99.90
24844;DHT22;12921;51.392;12.240;2023-01-13T21:31:13;7.20;99.90
24844;DHT22;12921;51.392;12.240;2023-01-13T21:33:39;7.10;99.90
24844;DHT22;12921;51.392;12.240;2023-01-13T21:36:14;7.10;99.90
24844;DHT22;12921;51.392;12.240;2023-01-13T21:38:40;7.10;99.90
24844;DHT22;12921;51.392;12.240;2023-01-13T21:41:07;7.00;99.90
24844;DHT22;12921;51.392;12.240;2023-01-13T21:43:34;6.90;99.90
